Time;durP1;ratioP1;P1;durP2;ratioP2;P2;SDS_P1;SDS_P2;PMS_P1;PMS_P2;Temp;Humidity;BMP_temperature;BMP_pressure;BME280_temperature;BME280_humidity;BME280_pressure;Samples;Min_cycle;Max_cycle;Signal;HPM_P1;HPM_P2
2023/01/15 00:01:30;;;;;;;8.68;1.90;;;6.50;99.90;;;;;;5029443;28;20396;-81
2023/01/15 00:03:58;;;;;;;10.40;1.95;;;6.50;99.90;;;;;;5055978;28;20457;-80
2023/01/15 00:06:26;;;;;;;9.52;1.80;;;6.60;99.90;;;;;;5056776;28;20392;-80
2023/01/15 00:08:52;;;;;;;11.15;2.05;;;6.50;99.90;;;;;;5055914;28;20048;-80
2023/01/15 00:11:19;;;;;;;13.20;2.15;;;6.50;99.90;;;;;;5057119;28;20051;-81
2023/01/15 00:13:45;;;;;;;10.57;2.20;;;6.50;99.90;;;;;;5056048;28;20059;-80
2023/01/15 00:16:16;;;;;;;11.30;2.25;;;6.50;99.90;;;;;;5058023;28;20049;-80
2023/01/15 00:18:42;;;;;;;9.93;1.90;;;6.50;99.90;;;;;;5038414;28;20056;-81
2023/01/15 00:21:12;;;;;;;12.77;2.00;;;6.50;99.90;;;;;;5037260;28;20051;-79
2023/01/15 00:29:11;;;;;;;11.32;1.88;;;6.50;99.90;;;;;;5056396;28;20481;-79
2023/01/15 00:31:37;;;;;;;10.70;1.70;;;6.50;99.90;;;;;;5049170;28;20045;-79
2023/01/15 00:34:03;;;;;;;9.98;2.20;;;6.50;99.90;;;;;;5049734;28;20127;-81
2023/01/15 00:36:29;;;;;;;10.07;2.00;;;6.50;99.90;;;;;;5056216;28;20048;-81
2023/01/15 00:38:54;;;;;;;13.30;2.08;;;6.50;99.90;;;;;;5055348;28;20427;-79
2023/01/15 00:41:20;;;;;;;10.43;1.90;;;6.50;99.90;;;;;;5056494;28;20124;-80
2023/01/15 00:43:46;;;;;;;11.15;1.98;;;6.50;99.90;;;;;;5050569;28;20389;-81
2023/01/15 00:46:12;;;;;;;13.57;2.22;;;6.50;99.90;;;;;;5049053;28;20048;-80
2023/01/15 00:48:38;;;;;;;10.18;2.10;;;6.50;99.90;;;;;;5059677;28;20052;-80
2023/01/15 00:51:04;;;;;;;8.30;1.70;;;6.50;99.90;;;;;;5056324;28;20080;-79
2023/01/15 00:53:30;;;;;;;11.48;1.98;;;6.50;99.90;;;;;;5055216;28;20112;-80
2023/01/15 00:55:56;;;;;;;11.60;2.33;;;6.60;99.90;;;;;;5073962;28;20041;-80
2023/01/15 00:58:22;;;;;;;12.02;1.92;;;6.50;99.90;;;;;;5055837;28;20054;-79
2023/01/15 01:00:55;;;;;;;10.40;2.10;;;6.50;99.90;;;;;;5056008;28;20110;-80
2023/01/15 01:03:22;;;;;;;9.23;1.85;;;6.60;99.90;;;;;;5055677;28;20050;-79
2023/01/15 01:05:48;;;;;;;11.20;2.03;;;6.60;99.90;;;;;;5039199;28;20037;-79
2023/01/15 01:08:14;;;;;;;13.35;1.95;;;6.60;99.90;;;;;;5055323;28;20040;-79
2023/01/15 01:10:39;;;;;;;9.82;1.90;;;6.50;99.90;;;;;;5055101;28;20060;-80
2023/01/15 01:13:05;;;;;;;10.88;2.10;;;6.50;99.90;;;;;;5056102;28;20068;-79
2023/01/15 01:15:36;;;;;;;14.20;2.40;;;6.60;99.90;;;;;;5055570;28;20477;-80
2023/01/15 01:18:02;;;;;;;14.52;2.50;;;6.50;99.90;;;;;;5035864;28;20052;-79
2023/01/15 01:20:28;;;;;;;11.98;2.20;;;6.50;99.90;;;;;;5048038;28;20052;-79
2023/01/15 01:22:54;;;;;;;10.50;1.90;;;6.50;99.90;;;;;;5055239;28;20044;-80
2023/01/15 01:25:20;;;;;;;13.43;2.22;;;6.60;99.90;;;;;;5053675;28;20052;-80
2023/01/15 01:27:46;;;;;;;10.27;2.15;;;6.60;99.90;;;;;;5055214;28;20071;-80
2023/01/15 01:30:13;;;;;;;12.93;2.33;;;6.50;99.90;;;;;;5056008;28;20048;-80
2023/01/15 01:32:39;;;;;;;10.20;2.05;;;6.50;99.90;;;;;;5040725;28;20489;-79
2023/01/15 01:35:05;;;;;;;12.80;2.15;;;6.50;99.90;;;;;;5043961;28;20067;-80
2023/01/15 01:37:31;;;;;;;14.82;2.28;;;6.40;99.90;;;;;;5072402;28;20043;-80
2023/01/15 01:39:57;;;;;;;10.73;2.00;;;6.40;99.90;;;;;;5039071;28;20044;-79
2023/01/15 01:42:22;;;;;;;13.38;2.17;;;6.40;99.90;;;;;;5055276;28;20562;-79
2023/01/15 01:44:48;;;;;;;11.55;2.22;;;6.40;99.90;;;;;;5055174;28;20538;-79
2023/01/15 01:47:21;;;;;;;11.38;2.17;;;6.40;99.90;;;;;;5054448;28;20045;-80
2023/01/15 01:50:01;;;;;;;13.23;2.40;;;6.40;99.90;;;;;;5049096;28;20082;-79
2023/01/15 01:52:41;;;;;;;10.82;1.80;;;6.40;99.90;;;;;;5035589;28;20476;-79
2023/01/15 01:55:09;;;;;;;13.20;2.08;;;6.40;99.90;;;;;;5052489;28;20403;-79
2023/01/15 01:57:35;;;;;;;12.20;2.42;;;6.40;99.90;;;;;;5038613;28;20127;-80
2023/01/15 02:00:03;;;;;;;13.43;2.35;;;6.40;99.90;;;;;;5046028;28;20044;-80
2023/01/15 02:02:30;;;;;;;13.80;2.15;;;6.40;99.90;;;;;;5018679;28;20043;-79
2023/01/15 02:04:55;;;;;;;12.02;2.35;;;6.40;99.90;;;;;;5038565;28;20049;-80
2023/01/15 02:07:21;;;;;;;11.70;1.92;;;6.30;99.90;;;;;;5032137;28;20102;-80
2023/01/15 02:09:47;;;;;;;13.40;1.98;;;6.40;99.90;;;;;;5018719;28;20040;-79
2023/01/15 02:12:25;;;;;;;14.45;2.25;;;6.40;99.90;;;;;;5035506;28;20049;-79
2023/01/15 02:15:12;;;;;;;13.20;2.30;;;6.40;99.90;;;;;;5048474;28;20052;-79
2023/01/15 02:18:05;;;;;;;14.65;2.20;;;6.40;99.90;;;;;;5035204;28;20060;-79
2023/01/15 02:20:39;;;;;;;12.90;2.35;;;6.40;99.90;;;;;;5061180;28;20044;-79
2023/01/15 02:23:13;;;;;;;11.75;2.10;;;6.40;99.90;;;;;;5053758;28;20088;-81
2023/01/15 02:25:48;;;;;;;11.40;2.00;;;6.40;99.90;;;;;;5055183;28;20125;-79
2023/01/15 02:28:28;;;;;;;11.25;2.13;;;6.40;99.90;;;;;;5052839;28;20481;-79
2023/01/15 02:31:16;;;;;;;15.63;2.38;;;6.40;99.90;;;;;;5055183;28;20131;-80
2023/01/15 02:34:09;;;;;;;16.13;2.40;;;6.40;99.90;;;;;;5049140;28;20087;-79
2023/01/15 02:36:36;;;;;;;;;;;6.40;99.90;;;;;;5068461;28;20098;-77
2023/01/15 02:39:06;;;;;;;13.77;2.20;;;6.40;99.90;;;;;;5044358;28;19967;-79
2023/01/15 02:41:37;;;;;;;10.50;2.10;;;6.30;99.90;;;;;;5057908;28;20503;-78
2023/01/15 02:44:05;;;;;;;14.75;2.30;;;6.30;99.90;;;;;;5054709;28;20135;-77
2023/01/15 02:46:34;;;;;;;14.38;2.40;;;6.40;99.90;;;;;;5050906;28;20048;-79
2023/01/15 02:49:02;;;;;;;12.13;2.15;;;6.40;99.90;;;;;;5058828;28;20102;-79
2023/01/15 02:51:40;;;;;;;11.52;2.10;;;6.40;99.90;;;;;;5058435;28;20091;-78
2023/01/15 02:54:11;;;;;;;13.95;2.13;;;6.40;99.90;;;;;;5057483;28;20427;-79
2023/01/15 02:56:39;;;;;;;12.35;2.15;;;6.40;99.90;;;;;;5058837;28;20052;-79
2023/01/15 02:59:11;;;;;;;11.25;2.10;;;6.30;99.90;;;;;;5043433;28;20055;-78
2023/01/15 03:01:48;;;;;;;14.60;2.30;;;6.30;99.90;;;;;;5042121;28;20127;-79
2023/01/15 03:04:42;;;;;;;10.55;2.38;;;6.30;99.90;;;;;;5072693;28;20052;-79
2023/01/15 03:07:21;;;;;;;13.57;1.92;;;6.30;99.90;;;;;;5055597;28;20060;-78
2023/01/15 03:09:48;;;;;;;14.70;2.35;;;6.30;99.90;;;;;;5027489;28;20044;-78
2023/01/15 03:12:24;;;;;;;11.18;2.35;;;6.30;99.90;;;;;;5057877;28;20049;-79
2023/01/15 03:16:33;;;;;;;14.35;2.50;;;6.30;99.90;;;;;;5043615;28;20079;-79
2023/01/15 03:18:08;;;;;;;10.40;2.25;;;6.30;99.90;;;;;;5057919;28;20095;-79
2023/01/15 03:20:38;;;;;;;15.30;2.65;;;6.30;99.90;;;;;;5057744;28;20040;-78
2023/01/15 03:23:10;;;;;;;12.05;2.13;;;6.30;99.90;;;;;;5057659;28;20040;-78
2023/01/15 03:25:44;;;;;;;11.55;2.17;;;6.30;99.90;;;;;;5056883;28;20049;-78
2023/01/15 03:28:12;;;;;;;16.50;2.50;;;6.40;99.90;;;;;;5043554;28;20055;-78
2023/01/15 03:30:38;;;;;;;14.98;2.53;;;6.30;99.90;;;;;;5041078;28;20045;-78
2023/01/15 03:33:04;;;;;;;12.32;2.20;;;6.30;99.90;;;;;;5056356;28;20076;-78
2023/01/15 03:35:51;;;;;;;12.88;2.20;;;6.20;99.90;;;;;;5049434;28;20076;-79
2023/01/15 03:38:21;;;;;;;13.00;2.50;;;6.30;99.90;;;;;;5054308;28;20051;-77
2023/01/15 03:41:06;;;;;;;13.38;2.30;;;6.20;99.90;;;;;;5057483;28;20052;-79
2023/01/15 03:43:59;;;;;;;11.55;2.15;;;6.20;99.90;;;;;;5056925;28;20105;-77
2023/01/15 03:47:04;;;;;;;11.88;2.13;;;6.20;99.90;;;;;;5057198;28;20135;-78
2023/01/15 03:49:39;;;;;;;13.18;2.65;;;6.20;99.90;;;;;;5063886;28;20388;-78
2023/01/15 03:52:48;;;;;;;13.30;2.33;;;6.10;99.90;;;;;;5072028;28;20036;-79
2023/01/15 03:55:27;;;;;;;14.75;2.40;;;6.20;99.90;;;;;;5017951;28;20107;-77
2023/01/15 03:58:10;;;;;;;13.32;2.47;;;6.20;99.90;;;;;;5046373;28;20436;-79
2023/01/15 04:00:40;;;;;;;12.32;2.17;;;6.20;99.90;;;;;;5036686;28;20381;-77
2023/01/15 04:03:09;;;;;;;16.70;2.60;;;6.20;99.90;;;;;;5056870;28;20514;-78
2023/01/15 04:05:37;;;;;;;12.98;2.30;;;6.20;99.90;;;;;;5056360;28;20052;-77
2023/01/15 04:08:04;;;;;;;15.90;2.70;;;6.20;99.90;;;;;;5050355;28;20060;-79
2023/01/15 04:10:29;;;;;;;11.52;2.13;;;6.10;99.90;;;;;;5036467;28;20063;-78
2023/01/15 04:12:55;;;;;;;14.93;2.28;;;6.10;99.90;;;;;;5034952;28;20123;-77
2023/01/15 04:15:21;;;;;;;15.18;2.13;;;6.10;99.90;;;;;;5047662;28;20051;-77
2023/01/15 04:17:46;;;;;;;12.45;2.22;;;6.10;99.90;;;;;;5071772;28;20502;-77
2023/01/15 04:20:12;;;;;;;10.18;1.88;;;6.10;99.90;;;;;;5045162;28;20208;-77
2023/01/15 04:22:38;;;;;;;13.48;2.55;;;6.10;99.90;;;;;;5074370;28;20040;-78
2023/01/15 04:25:05;;;;;;;13.32;2.60;;;6.10;99.90;;;;;;5055328;28;20044;-78
2023/01/15 04:27:31;;;;;;;13.90;2.40;;;6.10;99.90;;;;;;5057046;28;20071;-78
2023/01/15 04:29:57;;;;;;;13.60;2.33;;;6.00;99.90;;;;;;5036083;28;20041;-80
2023/01/15 04:32:23;;;;;;;11.50;2.28;;;6.00;99.90;;;;;;5047405;28;20103;-79
2023/01/15 04:34:49;;;;;;;13.40;2.40;;;6.10;99.90;;;;;;5056385;28;20104;-77
2023/01/15 04:37:16;;;;;;;13.55;2.40;;;6.00;99.90;;;;;;5031389;28;20080;-77
2023/01/15 04:39:42;;;;;;;13.20;2.30;;;6.00;99.90;;;;;;5049139;28;20037;-78
2023/01/15 04:44:57;;;;;;;18.45;2.47;;;6.10;99.90;;;;;;5056183;28;20412;-79
2023/01/15 04:47:22;;;;;;;13.77;2.45;;;6.10;99.90;;;;;;5056671;28;20063;-78
2023/01/15 04:49:48;;;;;;;14.40;2.50;;;6.10;99.90;;;;;;5055298;28;20080;-76
2023/01/15 04:52:14;;;;;;;13.73;2.30;;;6.10;99.90;;;;;;5059949;28;20049;-78
2023/01/15 04:54:40;;;;;;;14.43;2.47;;;6.10;99.90;;;;;;5047889;28;20045;-80
2023/01/15 04:57:06;;;;;;;11.73;2.50;;;6.10;99.90;;;;;;5069479;28;20047;-78
2023/01/15 04:59:32;;;;;;;12.55;2.10;;;6.10;99.90;;;;;;5042827;28;20388;-80
2023/01/15 05:01:58;;;;;;;11.55;2.08;;;6.10;99.90;;;;;;5056288;28;20105;-80
2023/01/15 05:04:24;;;;;;;13.35;2.40;;;6.10;99.90;;;;;;5069669;28;20040;-79
2023/01/15 05:06:50;;;;;;;13.88;2.47;;;6.10;99.90;;;;;;5055532;28;20114;-79
2023/01/15 05:09:16;;;;;;;11.07;2.42;;;6.10;99.90;;;;;;5038212;28;20053;-80
2023/01/15 05:11:41;;;;;;;16.60;2.53;;;6.10;99.90;;;;;;5044562;28;20055;-77
2023/01/15 05:14:07;;;;;;;12.85;2.22;;;6.10;99.90;;;;;;5055568;28;20053;-80
2023/01/15 05:16:34;;;;;;;12.57;2.22;;;6.10;99.90;;;;;;5055982;28;20044;-80
2023/01/15 05:19:01;;;;;;;13.77;2.28;;;6.10;99.90;;;;;;5055316;28;20396;-81
2023/01/15 05:21:32;;;;;;;12.27;2.22;;;6.10;99.90;;;;;;5055132;28;20040;-80
2023/01/15 05:24:00;;;;;;;12.93;2.33;;;6.10;99.90;;;;;;5054564;28;20056;-79
2023/01/15 05:26:28;;;;;;;14.93;2.30;;;6.10;99.90;;;;;;5067924;28;20048;-80
2023/01/15 05:28:55;;;;;;;14.27;2.40;;;6.10;99.90;;;;;;5055269;28;20435;-78
2023/01/15 05:31:22;;;;;;;16.23;2.50;;;6.00;99.90;;;;;;5055599;28;20120;-79
2023/01/15 05:33:48;;;;;;;12.57;2.50;;;6.00;99.90;;;;;;5055606;28;20131;-79
2023/01/15 05:36:20;;;;;;;17.35;2.40;;;6.00;99.90;;;;;;5042913;28;20540;-78
2023/01/15 05:38:46;;;;;;;12.75;2.58;;;6.00;99.90;;;;;;5066341;28;20048;-79
2023/01/15 05:44:02;;;;;;;13.10;2.22;;;5.90;99.90;;;;;;5040346;28;20052;-77
2023/01/15 05:46:28;;;;;;;12.85;2.50;;;5.80;99.90;;;;;;5049854;28;20455;-77
2023/01/15 05:48:57;;;;;;;13.93;2.58;;;5.90;99.90;;;;;;5055133;28;20127;-79
2023/01/15 05:51:23;;;;;;;17.80;2.50;;;5.90;99.90;;;;;;5035502;28;20048;-77
2023/01/15 05:53:49;;;;;;;14.48;2.40;;;5.80;99.90;;;;;;5070938;28;20119;-78
2023/01/15 05:56:15;;;;;;;16.02;2.45;;;5.80;99.90;;;;;;5055556;28;20450;-78
2023/01/15 05:58:40;;;;;;;14.60;2.20;;;5.70;99.90;;;;;;5040221;28;20060;-78
2023/01/15 06:01:10;;;;;;;12.30;2.25;;;5.70;99.90;;;;;;5048626;28;20511;-79
2023/01/15 06:03:36;;;;;;;16.25;2.20;;;5.70;99.90;;;;;;5035416;28;20049;-79
2023/01/15 06:06:03;;;;;;;12.88;2.20;;;5.70;99.90;;;;;;5053701;28;20041;-77
2023/01/15 06:08:29;;;;;;;13.43;2.38;;;5.70;99.90;;;;;;5035154;28;20048;-78
2023/01/15 06:10:55;;;;;;;13.23;2.00;;;5.70;99.90;;;;;;5052741;28;20358;-83
2023/01/15 06:13:20;;;;;;;9.95;1.83;;;5.70;99.90;;;;;;5061623;28;20048;-80
2023/01/15 06:15:46;;;;;;;9.13;2.00;;;5.70;99.90;;;;;;5057549;28;20048;-79
2023/01/15 06:18:12;;;;;;;9.57;1.90;;;5.70;99.90;;;;;;5009485;28;20044;-78
2023/01/15 06:20:39;;;;;;;11.30;1.63;;;5.70;99.90;;;;;;5058972;28;20048;-77
2023/01/15 06:23:05;;;;;;;8.60;1.90;;;5.70;99.90;;;;;;5058108;28;20048;-78
2023/01/15 06:25:35;;;;;;;10.07;2.00;;;5.70;99.90;;;;;;5046646;28;20121;-79
2023/01/15 06:28:06;;;;;;;9.60;1.73;;;5.70;99.90;;;;;;5058600;28;20052;-78
2023/01/15 06:30:32;;;;;;;10.20;2.10;;;5.70;99.90;;;;;;5058829;28;20045;-79
2023/01/15 06:32:58;;;;;;;9.13;1.90;;;5.60;99.90;;;;;;5057441;28;20052;-80
2023/01/15 06:35:25;;;;;;;10.27;1.80;;;5.60;99.90;;;;;;5058671;28;20442;-77
2023/01/15 06:37:50;;;;;;;9.25;1.70;;;5.60;99.90;;;;;;5058997;28;20056;-79
2023/01/15 06:40:16;;;;;;;11.32;2.13;;;5.60;99.90;;;;;;5057138;28;20056;-80
2023/01/15 06:48:17;;;;;;;12.77;1.90;;;5.50;99.90;;;;;;5060007;28;20057;-79
2023/01/15 06:50:43;;;;;;;14.10;2.20;;;5.50;99.90;;;;;;5052838;28;20110;-80
2023/01/15 06:53:09;;;;;;;12.15;2.30;;;5.60;99.90;;;;;;5034328;28;20052;-79
2023/01/15 06:55:35;;;;;;;14.10;2.20;;;5.50;99.90;;;;;;5056103;28;20072;-79
2023/01/15 06:58:02;;;;;;;12.48;2.20;;;5.50;99.90;;;;;;5049522;28;20489;-78
2023/01/15 07:00:28;;;;;;;12.60;2.00;;;5.40;99.90;;;;;;5038827;28;20045;-78
2023/01/15 07:02:54;;;;;;;12.25;2.33;;;5.50;99.90;;;;;;5058553;28;20439;-79
2023/01/15 07:05:19;;;;;;;11.38;2.22;;;5.40;99.90;;;;;;5068347;28;20123;-79
2023/01/15 07:07:45;;;;;;;10.98;2.17;;;5.40;99.90;;;;;;5059297;28;20485;-77
2023/01/15 07:10:11;;;;;;;14.68;2.30;;;5.40;99.90;;;;;;5020974;28;20049;-79
2023/01/15 07:12:36;;;;;;;14.38;2.00;;;5.40;99.90;;;;;;5053693;28;20416;-79
2023/01/15 07:15:02;;;;;;;12.00;1.77;;;5.40;99.90;;;;;;5057972;28;20041;-78
2023/01/15 07:17:28;;;;;;;9.20;2.00;;;5.30;99.90;;;;;;5041464;28;20120;-80
2023/01/15 07:19:54;;;;;;;11.70;2.08;;;5.30;99.90;;;;;;5057476;28;20043;-80
2023/01/15 07:22:19;;;;;;;11.45;2.25;;;5.40;99.90;;;;;;5057406;28;20055;-78
2023/01/15 07:24:45;;;;;;;14.65;2.08;;;5.40;99.90;;;;;;5052737;28;20051;-78
2023/01/15 07:27:11;;;;;;;12.98;1.98;;;5.40;99.90;;;;;;5037749;28;20400;-78
2023/01/15 07:29:37;;;;;;;10.27;1.92;;;5.30;99.90;;;;;;5037631;28;20179;-80
2023/01/15 07:32:03;;;;;;;12.95;2.17;;;5.30;99.90;;;;;;5029423;28;20048;-78
2023/01/15 07:34:28;;;;;;;12.88;2.13;;;5.30;99.90;;;;;;5057888;28;20051;-78
2023/01/15 07:36:54;;;;;;;11.48;2.08;;;5.30;99.90;;;;;;5043261;28;20044;-79
2023/01/15 07:39:20;;;;;;;10.43;2.00;;;5.30;99.90;;;;;;5074583;28;20048;-80
2023/01/15 07:50:07;;;;;;;11.18;2.10;;;5.20;99.90;;;;;;5054385;28;20080;-78
2023/01/15 07:52:34;;;;;;;7.72;1.55;;;5.10;99.90;;;;;;5047136;28;20476;-76
2023/01/15 07:55:00;;;;;;;8.20;1.83;;;5.10;99.90;;;;;;5050161;28;20044;-78
2023/01/15 07:57:26;;;;;;;11.43;2.05;;;5.20;99.90;;;;;;5021774;28;20052;-81
2023/01/15 07:59:51;;;;;;;13.38;2.05;;;5.20;99.90;;;;;;5047334;28;20047;-77
2023/01/15 08:02:17;;;;;;;9.55;1.90;;;5.20;99.90;;;;;;5057207;28;20392;-81
2023/01/15 08:04:43;;;;;;;14.10;1.90;;;5.20;99.90;;;;;;5056439;28;20062;-81
2023/01/15 08:07:09;;;;;;;12.35;2.17;;;5.10;99.90;;;;;;5065518;28;20455;-78
2023/01/15 08:09:35;;;;;;;11.23;1.83;;;5.10;99.90;;;;;;5057365;28;20485;-77
2023/01/15 08:17:38;;;;;;;10.43;2.05;;;5.20;99.90;;;;;;5062460;28;20044;-79
2023/01/15 08:20:06;;;;;;;11.95;1.90;;;5.20;99.90;;;;;;5056580;28;20040;-78
2023/01/15 08:22:32;;;;;;;9.55;1.83;;;5.30;99.90;;;;;;5043532;28;20387;-80
2023/01/15 08:24:58;;;;;;;9.43;1.95;;;5.30;99.90;;;;;;5056640;28;20045;-82
2023/01/15 08:27:23;;;;;;;10.13;2.03;;;5.30;99.90;;;;;;5048459;28;20072;-80
2023/01/15 08:29:49;;;;;;;9.07;2.00;;;5.40;99.90;;;;;;5056044;28;20055;-80
2023/01/15 08:32:15;;;;;;;10.43;1.80;;;5.40;99.90;;;;;;5064200;28;20055;-79
2023/01/15 08:34:41;;;;;;;10.57;2.00;;;5.50;99.90;;;;;;5053647;28;20048;-79
2023/01/15 08:37:07;;;;;;;11.77;1.75;;;5.10;99.90;;;;;;5056037;28;20037;-79
2023/01/15 08:39:33;;;;;;;9.45;2.22;;;5.60;99.90;;;;;;5055630;28;20044;-80
2023/01/15 08:41:58;;;;;;;13.82;2.30;;;5.60;99.90;;;;;;5056401;28;20106;-79
2023/01/15 08:44:24;;;;;;;87.90;6.18;;;5.60;99.90;;;;;;5072807;28;20462;-80
2023/01/15 08:46:51;;;;;;;15.50;2.10;;;5.70;99.90;;;;;;5028698;28;20098;-81
2023/01/15 08:49:20;;;;;;;14.70;2.25;;;5.70;99.90;;;;;;5056147;28;20468;-79
2023/01/15 08:51:50;;;;;;;12.90;2.20;;;5.70;99.90;;;;;;5056388;28;20052;-77
2023/01/15 08:54:19;;;;;;;17.15;2.03;;;5.70;99.90;;;;;;5055503;28;20177;-83
2023/01/15 08:56:46;;;;;;;9.88;1.88;;;5.80;99.90;;;;;;5056116;28;20061;-82
2023/01/15 08:59:12;;;;;;;12.13;2.20;;;5.80;99.90;;;;;;5054769;28;20047;-78
2023/01/15 09:01:37;;;;;;;10.55;1.88;;;5.80;99.90;;;;;;5056291;28;20044;-79
2023/01/15 09:04:05;;;;;;;9.77;1.88;;;5.80;99.90;;;;;;5055944;28;20052;-81
2023/01/15 09:06:31;;;;;;;11.43;2.00;;;5.80;99.90;;;;;;5039840;28;20059;-84
2023/01/15 09:08:59;;;;;;;10.80;1.90;;;5.80;99.90;;;;;;5045930;28;20053;-80
2023/01/15 09:11:25;;;;;;;11.55;2.00;;;5.80;99.90;;;;;;5039272;28;20057;-79
2023/01/15 09:13:52;;;;;;;11.68;1.60;;;5.70;99.90;;;;;;5056066;28;20131;-82
2023/01/15 09:16:18;;;;;;;11.00;1.70;;;5.80;99.90;;;;;;5055059;28;20515;-83
2023/01/15 09:18:45;;;;;;;11.68;2.10;;;5.60;99.90;;;;;;5050686;28;20044;-78
2023/01/15 09:21:11;;;;;;;6.63;1.15;;;5.50;99.90;;;;;;5054548;28;20044;-78
2023/01/15 09:23:38;;;;;;;6.82;1.40;;;5.30;99.90;;;;;;5053992;28;20090;-76
2023/01/15 09:26:05;;;;;;;4.70;0.98;;;5.20;99.90;;;;;;5073069;28;20041;-75
2023/01/15 09:28:33;;;;;;;7.05;1.15;;;5.00;99.90;;;;;;5039020;28;20160;-77
2023/01/15 09:30:59;;;;;;;5.45;1.20;;;4.90;99.90;;;;;;5057652;28;20044;-75
2023/01/15 09:33:25;;;;;;;7.03;1.52;;;4.70;99.90;;;;;;5035540;28;20088;-74
2023/01/15 09:35:51;;;;;;;5.03;0.93;;;4.60;99.90;;;;;;5053172;28;20078;-77
2023/01/15 09:38:20;;;;;;;5.10;0.98;;;4.60;99.90;;;;;;5034896;28;20396;-76
2023/01/15 09:41:06;;;;;;;4.60;1.10;;;4.60;99.90;;;;;;5044514;28;20439;-76
2023/01/15 09:44:10;;;;;;;5.93;1.05;;;4.50;99.90;;;;;;5050803;28;20086;-76
2023/01/15 09:46:48;;;;;;;4.28;0.90;;;4.60;99.90;;;;;;4989289;28;20172;-76
2023/01/15 09:49:31;;;;;;;6.20;1.02;;;4.50;99.90;;;;;;5007502;28;20041;-74
2023/01/15 09:52:15;;;;;;;10.50;1.50;;;4.40;99.90;;;;;;5031977;28;20049;-76
2023/01/15 09:55:02;;;;;;;9.75;1.40;;;4.30;99.90;;;;;;5047261;28;20040;-77
2023/01/15 09:57:29;;;;;;;7.13;1.38;;;4.20;99.90;;;;;;5051833;28;20055;-77
2023/01/15 10:00:04;;;;;;;7.30;1.70;;;4.30;99.90;;;;;;5054208;28;20045;-74
2023/01/15 10:02:54;;;;;;;10.88;1.70;;;4.30;99.90;;;;;;5051564;28;20120;-75
2023/01/15 10:05:46;;;;;;;10.02;1.80;;;4.40;99.90;;;;;;5049529;28;20041;-76
2023/01/15 10:08:22;;;;;;;9.60;1.67;;;4.40;99.90;;;;;;5051544;28;20049;-75
2023/01/15 10:10:55;;;;;;;10.77;1.92;;;4.40;99.90;;;;;;5069972;28;20055;-78
2023/01/15 10:13:42;;;;;;;7.38;1.30;;;4.40;99.90;;;;;;5044591;28;20208;-79
2023/01/15 10:16:09;;;;;;;9.82;1.55;;;4.50;99.90;;;;;;5055247;28;20140;-76
2023/01/15 10:18:36;;;;;;;8.18;1.40;;;4.50;99.90;;;;;;5049724;28;20032;-75
2023/01/15 10:21:28;;;;;;;9.23;1.80;;;4.60;99.90;;;;;;5049203;28;20037;-77
2023/01/15 10:23:54;;;;;;;;;;;4.70;99.90;;;;;;5026414;28;20065;-80
2023/01/15 10:26:41;;;;;;;8.60;1.70;;;5.80;99.90;;;;;;5044889;28;19929;-75
2023/01/15 10:29:45;;;;;;;11.65;1.58;;;4.80;99.90;;;;;;5044963;28;20040;-77
2023/01/15 10:32:39;;;;;;;10.63;1.58;;;4.80;99.90;;;;;;5031274;28;20053;-77
2023/01/15 10:35:20;;;;;;;6.63;1.35;;;4.80;99.90;;;;;;5049336;28;20052;-76
2023/01/15 10:37:45;;;;;;;11.98;1.77;;;4.80;99.90;;;;;;5031507;28;20056;-73
2023/01/15 10:40:26;;;;;;;8.80;1.65;;;4.70;99.90;;;;;;5060232;28;20505;-75
2023/01/15 10:43:10;;;;;;;9.02;1.58;;;4.80;99.90;;;;;;5060781;28;20044;-75
2023/01/15 10:45:56;;;;;;;11.63;1.67;;;4.70;99.90;;;;;;5047386;28;20548;-76
2023/01/15 10:48:54;;;;;;;10.98;1.80;;;4.80;99.90;;;;;;5044096;28;20501;-79
2023/01/15 10:52:05;;;;;;;12.52;1.85;;;4.90;99.90;;;;;;5047224;28;20198;-74
2023/01/15 10:54:36;;;;;;;10.82;1.88;;;5.00;99.90;;;;;;5005149;28;20147;-77
2023/01/15 10:57:20;;;;;;;11.00;2.15;;;5.20;99.90;;;;;;5046457;28;20048;-76
2023/01/15 10:59:57;;;;;;;10.48;1.52;;;5.20;99.90;;;;;;5048567;28;20075;-78
2023/01/15 11:02:31;;;;;;;8.93;1.55;;;5.30;99.90;;;;;;5047120;28;20056;-75
2023/01/15 11:04:57;;;;;;;11.20;2.22;;;5.30;99.90;;;;;;5062268;28;20113;-76
2023/01/15 11:07:37;;;;;;;9.98;1.90;;;5.30;99.90;;;;;;5046802;28;20117;-78
2023/01/15 11:10:07;;;;;;;12.55;1.90;;;5.30;99.90;;;;;;5041818;28;20469;-75
2023/01/15 11:21:16;;;;;;;11.98;2.08;;;5.60;99.90;;;;;;5066229;28;20045;-77
2023/01/15 11:23:42;;;;;;;12.98;1.92;;;5.50;99.90;;;;;;5046523;28;20461;-79
2023/01/15 11:26:09;;;;;;;11.38;2.20;;;5.50;99.90;;;;;;5048810;28;20048;-76
2023/01/15 11:28:42;;;;;;;13.65;2.10;;;5.60;99.90;;;;;;5039419;28;20049;-76
2023/01/15 11:31:10;;;;;;;13.05;2.08;;;5.60;99.90;;;;;;5041159;28;20440;-80
2023/01/15 11:33:37;;;;;;;6.10;1.25;;;5.60;99.90;;;;;;5045477;28;20119;-76
2023/01/15 11:36:17;;;;;;;14.32;2.38;;;5.70;99.90;;;;;;5049113;28;20495;-76
2023/01/15 11:38:46;;;;;;;13.18;2.30;;;5.70;99.90;;;;;;5053335;28;20387;-76
2023/01/15 11:52:46;;;;;;;11.68;1.98;;;6.00;99.90;;;;;;5032889;28;20306;-77
2023/01/15 11:55:19;;;;;;;11.77;1.83;;;6.00;99.90;;;;;;5040758;28;20049;-76
2023/01/15 11:57:45;;;;;;;12.60;2.10;;;6.00;99.90;;;;;;5048661;28;20048;-75
2023/01/15 12:00:22;;;;;;;11.30;2.25;;;6.10;99.90;;;;;;5050884;28;20052;-78
2023/01/15 12:02:51;;;;;;;10.73;1.75;;;6.20;99.90;;;;;;5039007;28;20120;-78
2023/01/15 12:05:23;;;;;;;8.95;1.80;;;6.30;99.90;;;;;;5045895;28;20400;-78
2023/01/15 12:07:53;;;;;;;9.88;1.88;;;6.40;99.90;;;;;;5040332;28;20056;-75
2023/01/15 12:13:32;;;;;;;10.35;2.03;;;6.50;99.90;;;;;;5040104;28;20049;-79
2023/01/15 12:16:11;;;;;;;13.65;2.50;;;6.60;99.90;;;;;;5049335;28;20056;-77
2023/01/15 12:18:52;;;;;;;10.82;2.25;;;6.70;99.90;;;;;;5048991;28;20048;-79
2023/01/15 12:21:28;;;;;;;12.05;1.90;;;6.70;99.90;;;;;;5046726;28;20488;-78
2023/01/15 12:24:15;;;;;;;11.02;2.00;;;6.70;99.90;;;;;;5043395;28;20091;-79
2023/01/15 12:26:51;;;;;;;13.05;2.40;;;6.60;99.90;;;;;;5049130;28;20135;-80
2023/01/15 12:29:39;;;;;;;12.68;2.33;;;6.60;99.90;;;;;;5035365;28;20098;-80
2023/01/15 12:32:13;;;;;;;11.73;2.22;;;6.60;99.90;;;;;;5053062;28;20048;-76
2023/01/15 12:34:53;;;;;;;15.43;2.53;;;6.60;99.90;;;;;;5065562;28;20084;-79
2023/01/15 12:37:44;;;;;;;9.73;2.33;;;6.70;99.90;;;;;;5028757;28;20094;-81
2023/01/15 12:40:13;;;;;;;12.02;2.10;;;6.70;99.90;;;;;;5046911;28;20063;-77
2023/01/15 12:45:35;;;;;;;13.60;2.15;;;6.80;99.90;;;;;;5047876;28;20408;-78
2023/01/15 12:48:12;;;;;;;9.68;1.90;;;6.70;99.90;;;;;;5049015;28;20051;-79
2023/01/15 12:50:38;;;;;;;11.95;2.08;;;6.70;99.90;;;;;;5046034;28;20055;-78
2023/01/15 12:53:26;;;;;;;14.32;2.38;;;6.60;99.90;;;;;;5049140;28;20049;-80
2023/01/15 12:56:00;;;;;;;9.45;1.83;;;6.50;99.90;;;;;;5047211;28;20540;-77
2023/01/15 12:59:04;;;;;;;9.13;1.80;;;6.60;99.90;;;;;;5045165;28;20389;-79
2023/01/15 13:01:37;;;;;;;11.57;1.98;;;6.50;99.90;;;;;;5045170;28;20929;-81
2023/01/15 13:04:43;;;;;;;5.97;1.25;;;6.60;99.90;;;;;;5046100;28;20415;-76
2023/01/15 13:07:12;;;;;;;8.52;1.77;;;6.60;99.90;;;;;;5038916;28;20087;-78
2023/01/15 13:09:48;;;;;;;10.75;2.10;;;6.50;99.90;;;;;;5047979;28;20069;-79
2023/01/15 13:12:15;;;;;;;7.03;1.45;;;6.40;99.90;;;;;;5048775;28;20040;-76
2023/01/15 13:14:42;;;;;;;11.95;2.20;;;6.40;99.90;;;;;;5046639;28;20055;-76
2023/01/15 13:17:28;;;;;;;9.23;1.80;;;6.40;99.90;;;;;;5048267;28;20452;-81
2023/01/15 13:20:09;;;;;;;10.48;1.90;;;6.40;99.90;;;;;;5047678;28;20503;-76
2023/01/15 13:22:49;;;;;;;9.70;1.73;;;6.40;99.90;;;;;;5046448;28;21447;-77
2023/01/15 13:25:34;;;;;;;10.88;1.90;;;6.30;99.90;;;;;;5036953;28;20489;-78
2023/01/15 13:28:25;;;;;;;6.82;1.50;;;6.20;99.90;;;;;;5028009;28;20053;-79
2023/01/15 13:31:48;;;;;;;5.82;1.40;;;6.10;99.90;;;;;;5017854;28;20045;-76
2023/01/15 13:34:27;;;;;;;;;;;6.00;99.90;;;;;;4986470;28;20150;-78
2023/01/15 13:36:58;;;;;;;5.93;1.20;;;5.90;99.90;;;;;;5005098;28;19925;-78
2023/01/15 13:39:30;;;;;;;9.32;1.50;;;5.90;99.90;;;;;;4994133;28;20092;-77
2023/01/15 13:44:49;;;;;;;8.98;2.00;;;5.90;99.90;;;;;;5028256;28;19925;-79
2023/01/15 13:47:23;;;;;;;11.05;2.17;;;6.00;99.90;;;;;;5020503;28;20136;-79
2023/01/15 13:49:58;;;;;;;9.90;2.00;;;6.00;99.90;;;;;;5025969;28;20048;-78
2023/01/15 13:52:30;;;;;;;11.25;2.10;;;6.10;99.90;;;;;;5034904;28;20068;-80
2023/01/15 13:55:06;;;;;;;10.73;2.08;;;6.30;99.90;;;;;;5034028;28;20106;-77
2023/01/15 13:57:35;;;;;;;9.07;2.05;;;6.50;99.90;;;;;;5029754;28;20391;-77
2023/01/15 14:00:05;;;;;;;10.85;2.20;;;6.50;99.90;;;;;;5026139;28;20447;-76
2023/01/15 14:02:33;;;;;;;10.52;1.90;;;6.60;99.90;;;;;;5031372;28;20053;-77
2023/01/15 14:05:10;;;;;;;11.05;1.88;;;6.70;99.90;;;;;;5019612;28;20053;-81
2023/01/15 14:07:37;;;;;;;10.93;2.13;;;6.70;99.90;;;;;;5035243;28;20044;-79
2023/01/15 14:10:20;;;;;;;11.27;1.83;;;6.80;99.90;;;;;;5029893;28;20045;-76
2023/01/15 14:13:07;;;;;;;13.05;2.20;;;6.80;99.90;;;;;;5035467;28;20060;-78